Show Low, AZ

11:11 AM MST on October 20, 2017 (GMT -0700)
Show Low Municipal

Weather History for KSOW - April, 2013

Change the Weather History Date:

Monday, April 15, 2013

  Actual Average Record
Temperature  
Mean Temperature 52 °F -  
Max Temperature 62 °F 59 °F 77 °F (1985)
Min Temperature 42 °F 40 °F 21 °F (1983)
Degree Days  
Heating Degree Days 13    
Growing Degree Days 2 (Base 50)    
Moisture  
Dew Point 24 °F    
Average Humidity 33    
Maximum Humidity 49    
Minimum Humidity 19    
Precipitation  
Precipitation 0.00 in - - ()
Sea Level Pressure  
Sea Level Pressure 29.81 in    
Wind  
Wind Speed 28 mph (SSW)    
Max Wind Speed 45 mph    
Max Gust Speed 53 mph    
Visibility 10 miles    
Events      
Averages and records for this station are not official NWS values.
T = Trace of Precipitation, MM = Missing Value Source: NWS Daily Summary

Daily Weather History Graph

Daily Weather History Graph

Search for Another Location

Airport or City:

Trip Planner

Search our weather history database for the weather conditions in past years. The results will help you decide how hot, cold, wet, or windy it might be!

Date:

Astronomy

Apr. 15, 2013 Rise Set
Actual Time 5:48 AM MST 6:51 PM MST
Civil Twilight 5:22 AM MST 7:17 PM MST
Nautical Twilight 4:52 AM MST 7:48 PM MST
Astronomical Twilight 4:20 AM MST 8:20 PM MST
Moon 9:24 AM MST (4/15) 11:45 PM MST (4/15)
Length of Visible Light 13h 55m
Length of Day
13h 03m
Waxing Crescent, 25% of the Moon is Illuminated
Apr 15
Waxing Crescent
Apr 18
First Quarter
Apr 25
Full
May 2
Last Quarter
May 9
New

Hourly Weather History & Observations

Time (MST) Temp. Windchill Dew Point Humidity Pressure Visibility Wind Dir Wind Speed Gust Speed Precip Events Conditions
12:15 AM 50.0 °F - 21.2 °F 32% 29.83 in 10.0 mi South 25.3 mph 34.5 mph N/A   Clear
12:35 AM 48.2 °F - 21.2 °F 34% 29.83 in 10.0 mi South 21.9 mph 26.5 mph N/A   Unknown
12:55 AM 48.2 °F - 21.2 °F 34% 29.82 in 10.0 mi South 26.5 mph 33.4 mph N/A   Unknown
1:15 AM 48.2 °F - 21.2 °F 34% 29.81 in 10.0 mi South 24.2 mph 29.9 mph N/A   Clear
1:35 AM 48.2 °F - 21.2 °F 34% 29.80 in 10.0 mi South 24.2 mph 34.5 mph N/A   Clear
1:55 AM 46.4 °F 37.0 °F 23.0 °F 40% 29.78 in 10.0 mi South 31.1 mph 39.1 mph N/A   Clear
2:15 AM 46.4 °F 37.0 °F 23.0 °F 40% 29.77 in 10.0 mi South 31.1 mph 41.4 mph N/A   Clear
2:35 AM 46.4 °F 37.0 °F 23.0 °F 40% 29.77 in 10.0 mi South 31.1 mph 39.1 mph N/A   Clear
2:55 AM 46.4 °F 37.4 °F 23.0 °F 40% 29.77 in 10.0 mi SSW 28.8 mph 43.7 mph N/A   Clear
3:15 AM 46.4 °F 37.2 °F 24.8 °F 43% 29.77 in 10.0 mi SSW 29.9 mph 40.3 mph N/A   Clear
3:35 AM 46.4 °F 37.0 °F 24.8 °F 43% 29.78 in 10.0 mi SSW 31.1 mph 39.1 mph N/A   Clear
3:55 AM 44.6 °F 35.7 °F 24.8 °F 46% 29.80 in 10.0 mi SSW 24.2 mph 35.7 mph N/A   Clear
4:15 AM 44.6 °F 37.2 °F 24.8 °F 46% 29.81 in 10.0 mi South 17.3 mph 31.1 mph N/A   Clear
4:35 AM 44.6 °F 37.2 °F 24.8 °F 46% 29.83 in 10.0 mi South 17.3 mph 24.2 mph N/A   Clear
4:55 AM 44.6 °F 36.9 °F 24.8 °F 46% 29.82 in 10.0 mi South 18.4 mph - N/A   Clear
5:15 AM 42.8 °F 34.5 °F 24.8 °F 49% 29.82 in 10.0 mi South 18.4 mph - N/A   Clear
5:35 AM 42.8 °F 33.5 °F 24.8 °F 49% 29.81 in 10.0 mi South 23.0 mph 28.8 mph N/A   Clear
5:55 AM 42.8 °F 34.3 °F 24.8 °F 49% 29.82 in 10.0 mi South 19.6 mph 26.5 mph N/A   Clear
6:15 AM 44.6 °F 35.9 °F 24.8 °F 46% 29.82 in 10.0 mi South 23.0 mph 31.1 mph N/A   Clear
6:35 AM 44.6 °F 36.1 °F 24.8 °F 46% 29.82 in 10.0 mi South 21.9 mph 29.9 mph N/A   Clear
6:55 AM 46.4 °F 38.1 °F 24.8 °F 43% 29.82 in 10.0 mi South 24.2 mph 34.5 mph N/A   Clear
7:15 AM 46.4 °F 38.1 °F 26.6 °F 46% 29.83 in 10.0 mi South 24.2 mph 32.2 mph N/A   Clear
7:35 AM 48.2 °F - 26.6 °F 43% 29.84 in 10.0 mi South 20.7 mph 32.2 mph N/A   Clear
7:55 AM 48.2 °F - 26.6 °F 43% 29.84 in 10.0 mi South 28.8 mph 35.7 mph N/A   Clear
8:15 AM 50.0 °F - 26.6 °F 40% 29.85 in 10.0 mi SSW 25.3 mph 31.1 mph N/A   Clear
8:35 AM 50.0 °F - 24.8 °F 37% 29.84 in 10.0 mi South 27.6 mph 42.6 mph N/A   Clear
8:55 AM 51.8 °F - 26.6 °F 38% 29.83 in 10.0 mi South 33.4 mph 43.7 mph N/A   Clear
9:15 AM 51.8 °F - 26.6 °F 38% 29.84 in 10.0 mi South 34.5 mph 44.9 mph N/A   Clear
9:35 AM 53.6 °F - 26.6 °F 35% 29.84 in 10.0 mi SSW 29.9 mph 41.4 mph N/A   Clear
9:55 AM 55.4 °F - 26.6 °F 33% 29.83 in 10.0 mi South 33.4 mph 43.7 mph N/A   Clear
10:15 AM 55.4 °F - 26.6 °F 33% 29.82 in 10.0 mi SSW 34.5 mph 47.2 mph N/A   Clear
10:35 AM 57.2 °F - 24.8 °F 29% 29.81 in 10.0 mi SSW 35.7 mph 49.5 mph N/A   Clear
10:55 AM 57.2 °F - 24.8 °F 29% 29.81 in 10.0 mi SSW 44.9 mph 52.9 mph N/A   Clear
11:15 AM 57.2 °F - 26.6 °F 31% 29.81 in 10.0 mi SSW 38.0 mph 47.2 mph N/A   Clear
11:35 AM 59.0 °F - 26.6 °F 29% 29.82 in 10.0 mi South 35.7 mph 48.3 mph N/A   Clear
11:55 AM 59.0 °F - 26.6 °F 29% 29.82 in 10.0 mi South 31.1 mph 44.9 mph N/A   Clear
12:15 PM 59.0 °F - 24.8 °F 27% 29.81 in 10.0 mi SSW 32.2 mph 41.4 mph N/A   Clear
12:35 PM 59.0 °F - 24.8 °F 27% 29.81 in 10.0 mi SSW 34.5 mph 44.9 mph N/A   Clear
12:55 PM 60.8 °F - 24.8 °F 25% 29.80 in 10.0 mi South 32.2 mph 46.0 mph N/A   Clear
1:15 PM 62.6 °F - 24.8 °F 24% 29.80 in 10.0 mi South 28.8 mph 46.0 mph N/A   Clear
1:35 PM 62.6 °F - 23.0 °F 22% 29.80 in 10.0 mi SSW 35.7 mph 47.2 mph N/A   Clear
1:55 PM 62.6 °F - 23.0 °F 22% 29.80 in 10.0 mi SSW 34.5 mph 48.3 mph N/A   Clear
2:15 PM 62.6 °F - 23.0 °F 22% 29.80 in 10.0 mi SSW 41.4 mph 47.2 mph N/A   Clear
2:35 PM 62.6 °F - 23.0 °F 22% 29.79 in 10.0 mi South 36.8 mph 43.7 mph N/A   Clear
2:55 PM 62.6 °F - 23.0 °F 22% 29.79 in 10.0 mi South 38.0 mph 44.9 mph N/A   Clear
3:15 PM 62.6 °F - 19.4 °F 19% 29.80 in 10.0 mi SW 38.0 mph 46.0 mph N/A   Clear
3:35 PM 62.6 °F - 21.2 °F 20% 29.80 in 10.0 mi SSW 35.7 mph 48.3 mph N/A   Clear
3:55 PM 62.6 °F - 23.0 °F 22% 29.79 in 10.0 mi SSW 39.1 mph 46.0 mph N/A   Clear
4:15 PM 62.6 °F - 21.2 °F 20% 29.79 in 10.0 mi SSW 31.1 mph 44.9 mph N/A   Clear
4:35 PM 62.6 °F - 21.2 °F 20% 29.80 in 10.0 mi SSW 35.7 mph 46.0 mph N/A   Clear
4:55 PM 60.8 °F - 21.2 °F 22% 29.81 in 10.0 mi SSW 35.7 mph 44.9 mph N/A   Clear
5:15 PM 60.8 °F - 23.0 °F 23% 29.82 in 10.0 mi SSW 27.6 mph 36.8 mph N/A   Clear
5:35 PM 59.0 °F - 21.2 °F 23% 29.82 in 10.0 mi SSW 29.9 mph 38.0 mph N/A   Clear
5:55 PM 59.0 °F - 21.2 °F 23% 29.82 in 10.0 mi SSW 25.3 mph 35.7 mph N/A   Clear
6:15 PM 57.2 °F - 21.2 °F 25% 29.82 in 10.0 mi SSW 25.3 mph 36.8 mph N/A   Clear
6:35 PM 57.2 °F - 21.2 °F 25% 29.82 in 10.0 mi SSW 25.3 mph 35.7 mph N/A   Clear
6:55 PM 55.4 °F - 23.0 °F 29% 29.81 in 10.0 mi SSW 24.2 mph 39.1 mph N/A   Clear
7:15 PM 55.4 °F - 23.0 °F 29% 29.80 in 10.0 mi South 26.5 mph 35.7 mph N/A   Clear
7:35 PM 53.6 °F - 23.0 °F 30% 29.80 in 10.0 mi South 28.8 mph 33.4 mph N/A   Clear
7:55 PM 53.6 °F - 21.2 °F 28% 29.81 in 10.0 mi South 24.2 mph 34.5 mph N/A   Clear
8:15 PM 53.6 °F - 21.2 °F 28% 29.81 in 10.0 mi South 28.8 mph 39.1 mph N/A   Clear
8:35 PM 53.6 °F - 21.2 °F 28% 29.82 in 10.0 mi South 27.6 mph 34.5 mph N/A   Clear
8:55 PM 53.6 °F - 23.0 °F 30% 29.83 in 10.0 mi South 24.2 mph 32.2 mph N/A   Clear
9:15 PM 53.6 °F - 24.8 °F 33% 29.84 in 10.0 mi South 26.5 mph 33.4 mph N/A   Clear
9:35 PM 51.8 °F - 24.8 °F 35% 29.84 in 10.0 mi SSW 27.6 mph 34.5 mph N/A   Clear
9:55 PM 50.0 °F - 24.8 °F 37% 29.84 in 10.0 mi South 25.3 mph 33.4 mph N/A   Clear
10:15 PM 50.0 °F - 24.8 °F 37% 29.83 in 10.0 mi SSW 27.6 mph 36.8 mph N/A   Clear
10:35 PM 50.0 °F - 24.8 °F 37% 29.84 in 10.0 mi South 25.3 mph 34.5 mph N/A   Clear
10:55 PM 50.0 °F - 24.8 °F 37% 29.84 in 10.0 mi South 24.2 mph 34.5 mph N/A   Clear
11:15 PM 50.0 °F - 23.0 °F 35% 29.83 in 10.0 mi SSW 27.6 mph 36.8 mph N/A   Clear
11:35 PM 50.0 °F - 19.4 °F 30% 29.82 in 10.0 mi South 33.4 mph 39.1 mph N/A   Clear
11:55 PM 50.0 °F - 19.4 °F 30% 29.80 in 10.0 mi SSW 33.4 mph 42.6 mph N/A   Clear